sensor_id;sensor_type;location;lat;lon;timestamp;P1;durP1;ratioP1;P2;durP2;ratioP2
74293;SDS011;62688;59.904;10.738;2022-09-12T00:01:07;3.40;;;1.92;;
74293;SDS011;62688;59.904;10.738;2022-09-12T00:03:41;1.92;;;1.58;;
74293;SDS011;62688;59.904;10.738;2022-09-12T00:06:11;4.07;;;2.10;;
74293;SDS011;62688;59.904;10.738;2022-09-12T00:08:41;2.58;;;2.05;;
74293;SDS011;62688;59.904;10.738;2022-09-12T00:11:07;2.45;;;1.88;;
74293;SDS011;62688;59.904;10.738;2022-09-12T00:13:35;2.42;;;1.90;;
74293;SDS011;62688;59.904;10.738;2022-09-12T00:16:01;2.67;;;1.90;;
74293;SDS011;62688;59.904;10.738;2022-09-12T00:18:27;4.53;;;2.08;;
74293;SDS011;62688;59.904;10.738;2022-09-12T00:20:53;3.90;;;2.03;;
74293;SDS011;62688;59.904;10.738;2022-09-12T00:23:18;2.03;;;1.67;;
74293;SDS011;62688;59.904;10.738;2022-09-12T00:25:45;2.13;;;1.85;;
74293;SDS011;62688;59.904;10.738;2022-09-12T00:28:12;2.30;;;2.10;;
74293;SDS011;62688;59.904;10.738;2022-09-12T00:30:44;2.25;;;2.10;;
74293;SDS011;62688;59.904;10.738;2022-09-12T00:33:11;2.72;;;1.92;;
74293;SDS011;62688;59.904;10.738;2022-09-12T00:35:44;2.85;;;1.80;;
74293;SDS011;62688;59.904;10.738;2022-09-12T00:38:13;2.42;;;1.85;;
74293;SDS011;62688;59.904;10.738;2022-09-12T00:40:40;3.28;;;2.00;;
74293;SDS011;62688;59.904;10.738;2022-09-12T00:43:13;2.03;;;1.75;;
74293;SDS011;62688;59.904;10.738;2022-09-12T00:45:59;2.30;;;2.00;;
74293;SDS011;62688;59.904;10.738;2022-09-12T00:48:50;2.35;;;1.70;;
74293;SDS011;62688;59.904;10.738;2022-09-12T00:51:20;2.08;;;1.88;;
74293;SDS011;62688;59.904;10.738;2022-09-12T00:53:47;2.03;;;1.83;;
74293;SDS011;62688;59.904;10.738;2022-09-12T00:56:15;1.73;;;1.63;;
74293;SDS011;62688;59.904;10.738;2022-09-12T00:59:04;2.15;;;1.95;;
74293;SDS011;62688;59.904;10.738;2022-09-12T01:01:36;2.67;;;2.10;;
74293;SDS011;62688;59.904;10.738;2022-09-12T01:04:04;2.80;;;1.80;;
74293;SDS011;62688;59.904;10.738;2022-09-12T01:06:36;3.75;;;2.00;;
74293;SDS011;62688;59.904;10.738;2022-09-12T01:09:05;1.88;;;1.60;;
74293;SDS011;62688;59.904;10.738;2022-09-12T01:11:33;1.77;;;1.67;;
74293;SDS011;62688;59.904;10.738;2022-09-12T01:14:01;2.72;;;1.83;;
74293;SDS011;62688;59.904;10.738;2022-09-12T01:16:27;2.15;;;1.85;;
74293;SDS011;62688;59.904;10.738;2022-09-12T01:29:51;2.20;;;1.83;;
74293;SDS011;62688;59.904;10.738;2022-09-12T01:32:43;2.17;;;1.70;;
74293;SDS011;62688;59.904;10.738;2022-09-12T01:35:19;2.58;;;1.88;;
74293;SDS011;62688;59.904;10.738;2022-09-12T01:38:12;1.88;;;1.67;;
74293;SDS011;62688;59.904;10.738;2022-09-12T01:41:01;2.85;;;1.83;;
74293;SDS011;62688;59.904;10.738;2022-09-12T01:55:16;2.50;;;1.95;;
74293;SDS011;62688;59.904;10.738;2022-09-12T02:00:18;2.25;;;1.90;;
74293;SDS011;62688;59.904;10.738;2022-09-12T02:02:46;2.50;;;1.90;;
74293;SDS011;62688;59.904;10.738;2022-09-12T02:05:35;2.33;;;2.13;;
74293;SDS011;62688;59.904;10.738;2022-09-12T02:11:33;1.83;;;1.73;;
74293;SDS011;62688;59.904;10.738;2022-09-12T02:14:14;3.63;;;2.60;;
74293;SDS011;62688;59.904;10.738;2022-09-12T02:16:45;3.25;;;2.17;;
74293;SDS011;62688;59.904;10.738;2022-09-12T02:19:17;2.92;;;2.25;;
74293;SDS011;62688;59.904;10.738;2022-09-12T02:21:54;2.33;;;2.13;;
74293;SDS011;62688;59.904;10.738;2022-09-12T02:24:23;2.50;;;2.30;;
74293;SDS011;62688;59.904;10.738;2022-09-12T02:29:23;2.58;;;2.13;;
74293;SDS011;62688;59.904;10.738;2022-09-12T02:31:50;3.03;;;2.20;;
74293;SDS011;62688;59.904;10.738;2022-09-12T02:37:15;2.60;;;2.40;;
74293;SDS011;62688;59.904;10.738;2022-09-12T02:39:43;3.35;;;2.55;;
74293;SDS011;62688;59.904;10.738;2022-09-12T02:42:08;2.78;;;2.45;;
74293;SDS011;62688;59.904;10.738;2022-09-12T02:44:34;4.22;;;3.03;;
74293;SDS011;62688;59.904;10.738;2022-09-12T02:47:05;4.97;;;3.47;;
74293;SDS011;62688;59.904;10.738;2022-09-12T02:49:50;3.83;;;3.20;;
74293;SDS011;62688;59.904;10.738;2022-09-12T02:52:17;5.90;;;3.00;;
74293;SDS011;62688;59.904;10.738;2022-09-12T02:54:43;4.57;;;2.97;;
74293;SDS011;62688;59.904;10.738;2022-09-12T02:57:16;4.85;;;2.97;;
74293;SDS011;62688;59.904;10.738;2022-09-12T02:59:43;5.80;;;3.22;;
74293;SDS011;62688;59.904;10.738;2022-09-12T03:02:21;3.42;;;2.47;;
74293;SDS011;62688;59.904;10.738;2022-09-12T03:07:58;4.50;;;3.25;;
74293;SDS011;62688;59.904;10.738;2022-09-12T03:18:40;3.38;;;2.88;;
74293;SDS011;62688;59.904;10.738;2022-09-12T03:27:01;4.18;;;2.40;;
74293;SDS011;62688;59.904;10.738;2022-09-12T03:29:30;2.63;;;2.33;;
74293;SDS011;62688;59.904;10.738;2022-09-12T03:31:57;6.30;;;2.67;;
74293;SDS011;62688;59.904;10.738;2022-09-12T03:34:23;6.50;;;3.00;;
74293;SDS011;62688;59.904;10.738;2022-09-12T03:36:51;7.55;;;3.63;;
74293;SDS011;62688;59.904;10.738;2022-09-12T03:39:19;3.60;;;3.30;;
74293;SDS011;62688;59.904;10.738;2022-09-12T03:41:45;4.93;;;2.90;;
74293;SDS011;62688;59.904;10.738;2022-09-12T03:44:11;4.70;;;2.70;;
74293;SDS011;62688;59.904;10.738;2022-09-12T03:46:36;4.70;;;2.88;;
74293;SDS011;62688;59.904;10.738;2022-09-12T03:49:02;5.35;;;2.60;;
74293;SDS011;62688;59.904;10.738;2022-09-12T03:51:28;3.08;;;2.78;;
74293;SDS011;62688;59.904;10.738;2022-09-12T03:53:53;3.47;;;3.17;;
74293;SDS011;62688;59.904;10.738;2022-09-12T03:56:19;9.02;;;2.80;;
74293;SDS011;62688;59.904;10.738;2022-09-12T03:58:45;2.80;;;2.53;;
74293;SDS011;62688;59.904;10.738;2022-09-12T04:01:13;5.10;;;2.85;;
74293;SDS011;62688;59.904;10.738;2022-09-12T04:03:40;3.17;;;2.70;;
74293;SDS011;62688;59.904;10.738;2022-09-12T04:06:08;4.25;;;2.67;;
74293;SDS011;62688;59.904;10.738;2022-09-12T04:08:35;2.67;;;2.47;;
74293;SDS011;62688;59.904;10.738;2022-09-12T04:11:02;3.50;;;2.50;;
74293;SDS011;62688;59.904;10.738;2022-09-12T04:13:29;4.78;;;2.95;;
74293;SDS011;62688;59.904;10.738;2022-09-12T04:15:58;5.45;;;2.47;;
74293;SDS011;62688;59.904;10.738;2022-09-12T04:18:24;4.60;;;2.50;;
74293;SDS011;62688;59.904;10.738;2022-09-12T04:20:50;2.83;;;2.40;;
74293;SDS011;62688;59.904;10.738;2022-09-12T04:23:16;3.33;;;2.70;;
74293;SDS011;62688;59.904;10.738;2022-09-12T04:25:41;2.60;;;2.28;;
74293;SDS011;62688;59.904;10.738;2022-09-12T04:28:07;2.90;;;2.20;;
74293;SDS011;62688;59.904;10.738;2022-09-12T04:30:33;3.50;;;2.35;;
74293;SDS011;62688;59.904;10.738;2022-09-12T04:32:59;3.53;;;2.50;;
74293;SDS011;62688;59.904;10.738;2022-09-12T04:35:25;3.83;;;2.65;;
74293;SDS011;62688;59.904;10.738;2022-09-12T04:37:51;3.47;;;2.40;;
74293;SDS011;62688;59.904;10.738;2022-09-12T04:40:17;2.83;;;2.40;;
74293;SDS011;62688;59.904;10.738;2022-09-12T04:42:43;3.60;;;3.00;;
74293;SDS011;62688;59.904;10.738;2022-09-12T04:45:08;5.68;;;3.17;;
74293;SDS011;62688;59.904;10.738;2022-09-12T04:47:34;4.68;;;2.60;;
74293;SDS011;62688;59.904;10.738;2022-09-12T04:50:00;4.95;;;3.13;;
74293;SDS011;62688;59.904;10.738;2022-09-12T04:52:26;5.13;;;4.35;;
74293;SDS011;62688;59.904;10.738;2022-09-12T04:54:51;6.05;;;4.20;;
74293;SDS011;62688;59.904;10.738;2022-09-12T04:57:17;6.30;;;4.63;;
74293;SDS011;62688;59.904;10.738;2022-09-12T04:59:43;7.32;;;4.95;;
74293;SDS011;62688;59.904;10.738;2022-09-12T05:02:08;5.95;;;4.68;;
74293;SDS011;62688;59.904;10.738;2022-09-12T05:04:34;7.20;;;5.32;;
74293;SDS011;62688;59.904;10.738;2022-09-12T05:07:00;7.90;;;4.88;;
74293;SDS011;62688;59.904;10.738;2022-09-12T05:09:26;8.20;;;5.40;;
74293;SDS011;62688;59.904;10.738;2022-09-12T05:11:51;7.47;;;5.50;;
74293;SDS011;62688;59.904;10.738;2022-09-12T05:14:17;8.95;;;5.70;;
74293;SDS011;62688;59.904;10.738;2022-09-12T05:16:43;8.93;;;5.72;;
74293;SDS011;62688;59.904;10.738;2022-09-12T05:19:09;8.50;;;5.38;;
74293;SDS011;62688;59.904;10.738;2022-09-12T05:21:35;10.35;;;5.80;;
74293;SDS011;62688;59.904;10.738;2022-09-12T05:24:01;26.77;;;7.75;;
74293;SDS011;62688;59.904;10.738;2022-09-12T05:26:27;18.77;;;6.47;;
74293;SDS011;62688;59.904;10.738;2022-09-12T05:28:52;8.52;;;6.47;;
74293;SDS011;62688;59.904;10.738;2022-09-12T05:31:25;11.80;;;5.60;;
74293;SDS011;62688;59.904;10.738;2022-09-12T05:33:53;10.30;;;5.93;;
74293;SDS011;62688;59.904;10.738;2022-09-12T05:36:23;7.38;;;5.57;;
74293;SDS011;62688;59.904;10.738;2022-09-12T05:38:51;9.45;;;5.78;;
74293;SDS011;62688;59.904;10.738;2022-09-12T05:41:21;15.13;;;6.47;;
74293;SDS011;62688;59.904;10.738;2022-09-12T05:43:53;9.40;;;5.93;;
74293;SDS011;62688;59.904;10.738;2022-09-12T05:46:20;8.95;;;6.22;;
74293;SDS011;62688;59.904;10.738;2022-09-12T05:48:48;10.43;;;6.28;;
74293;SDS011;62688;59.904;10.738;2022-09-12T05:51:15;8.57;;;5.45;;
74293;SDS011;62688;59.904;10.738;2022-09-12T05:53:46;10.93;;;6.00;;
74293;SDS011;62688;59.904;10.738;2022-09-12T05:56:17;6.65;;;5.53;;
74293;SDS011;62688;59.904;10.738;2022-09-12T06:01:12;7.57;;;4.50;;
74293;SDS011;62688;59.904;10.738;2022-09-12T06:03:45;7.90;;;5.10;;
74293;SDS011;62688;59.904;10.738;2022-09-12T06:06:16;6.57;;;5.28;;
74293;SDS011;62688;59.904;10.738;2022-09-12T06:08:44;7.63;;;5.82;;
74293;SDS011;62688;59.904;10.738;2022-09-12T06:11:11;6.88;;;5.28;;
74293;SDS011;62688;59.904;10.738;2022-09-12T06:13:39;6.65;;;5.47;;
74293;SDS011;62688;59.904;10.738;2022-09-12T06:16:10;7.18;;;5.38;;
74293;SDS011;62688;59.904;10.738;2022-09-12T06:18:46;5.50;;;4.63;;
74293;SDS011;62688;59.904;10.738;2022-09-12T06:21:13;7.47;;;5.18;;
74293;SDS011;62688;59.904;10.738;2022-09-12T06:23:42;5.80;;;4.60;;
74293;SDS011;62688;59.904;10.738;2022-09-12T06:26:10;6.43;;;4.90;;
74293;SDS011;62688;59.904;10.738;2022-09-12T06:28:39;6.57;;;4.97;;
74293;SDS011;62688;59.904;10.738;2022-09-12T06:31:10;6.13;;;4.70;;
74293;SDS011;62688;59.904;10.738;2022-09-12T06:33:40;7.07;;;4.95;;
74293;SDS011;62688;59.904;10.738;2022-09-12T06:36:11;5.10;;;4.32;;
74293;SDS011;62688;59.904;10.738;2022-09-12T06:38:41;5.60;;;4.80;;
74293;SDS011;62688;59.904;10.738;2022-09-12T06:41:08;6.05;;;4.40;;
74293;SDS011;62688;59.904;10.738;2022-09-12T06:43:36;9.63;;;4.40;;
74293;SDS011;62688;59.904;10.738;2022-09-12T06:46:02;7.50;;;4.78;;
74293;SDS011;62688;59.904;10.738;2022-09-12T06:48:28;8.35;;;5.53;;
74293;SDS011;62688;59.904;10.738;2022-09-12T06:50:58;8.13;;;5.47;;
74293;SDS011;62688;59.904;10.738;2022-09-12T06:53:24;7.28;;;5.10;;
74293;SDS011;62688;59.904;10.738;2022-09-12T06:55:57;5.70;;;4.53;;
74293;SDS011;62688;59.904;10.738;2022-09-12T06:58:31;7.40;;;4.93;;
74293;SDS011;62688;59.904;10.738;2022-09-12T07:01:01;6.43;;;4.93;;
74293;SDS011;62688;59.904;10.738;2022-09-12T07:03:29;7.38;;;4.88;;
74293;SDS011;62688;59.904;10.738;2022-09-12T07:05:55;6.53;;;5.03;;
74293;SDS011;62688;59.904;10.738;2022-09-12T07:08:21;5.30;;;4.40;;
74293;SDS011;62688;59.904;10.738;2022-09-12T07:10:47;5.75;;;4.70;;
74293;SDS011;62688;59.904;10.738;2022-09-12T07:13:13;5.72;;;4.88;;
74293;SDS011;62688;59.904;10.738;2022-09-12T07:15:38;5.20;;;3.88;;
74293;SDS011;62688;59.904;10.738;2022-09-12T07:20:55;5.00;;;3.90;;
74293;SDS011;62688;59.904;10.738;2022-09-12T07:23:23;4.70;;;4.18;;
74293;SDS011;62688;59.904;10.738;2022-09-12T07:25:52;4.40;;;3.90;;
74293;SDS011;62688;59.904;10.738;2022-09-12T07:28:19;4.95;;;3.88;;
74293;SDS011;62688;59.904;10.738;2022-09-12T07:30:45;5.00;;;3.72;;
74293;SDS011;62688;59.904;10.738;2022-09-12T07:33:11;5.43;;;3.88;;
74293;SDS011;62688;59.904;10.738;2022-09-12T07:35:36;5.95;;;4.05;;
74293;SDS011;62688;59.904;10.738;2022-09-12T07:38:02;4.80;;;4.30;;
74293;SDS011;62688;59.904;10.738;2022-09-12T07:40:28;7.57;;;4.03;;
74293;SDS011;62688;59.904;10.738;2022-09-12T07:42:53;4.45;;;4.05;;
74293;SDS011;62688;59.904;10.738;2022-09-12T07:45:19;4.70;;;3.95;;
74293;SDS011;62688;59.904;10.738;2022-09-12T07:47:44;6.13;;;4.35;;
74293;SDS011;62688;59.904;10.738;2022-09-12T07:50:10;5.53;;;4.70;;
74293;SDS011;62688;59.904;10.738;2022-09-12T07:52:36;7.85;;;4.75;;
74293;SDS011;62688;59.904;10.738;2022-09-12T07:55:01;5.15;;;4.30;;
74293;SDS011;62688;59.904;10.738;2022-09-12T07:57:27;8.45;;;4.85;;
74293;SDS011;62688;59.904;10.738;2022-09-12T07:59:53;5.45;;;4.35;;
74293;SDS011;62688;59.904;10.738;2022-09-12T08:02:18;4.88;;;4.07;;
74293;SDS011;62688;59.904;10.738;2022-09-12T08:04:45;5.20;;;3.83;;
74293;SDS011;62688;59.904;10.738;2022-09-12T08:07:11;5.95;;;4.30;;
74293;SDS011;62688;59.904;10.738;2022-09-12T08:09:37;5.63;;;4.07;;
74293;SDS011;62688;59.904;10.738;2022-09-12T08:12:02;3.40;;;3.10;;
74293;SDS011;62688;59.904;10.738;2022-09-12T08:14:28;4.97;;;3.55;;
74293;SDS011;62688;59.904;10.738;2022-09-12T08:16:54;4.10;;;3.25;;
74293;SDS011;62688;59.904;10.738;2022-09-12T08:19:20;3.75;;;3.00;;
74293;SDS011;62688;59.904;10.738;2022-09-12T08:21:46;5.82;;;3.83;;
74293;SDS011;62688;59.904;10.738;2022-09-12T08:24:12;4.57;;;3.30;;
74293;SDS011;62688;59.904;10.738;2022-09-12T08:26:38;4.18;;;3.40;;
74293;SDS011;62688;59.904;10.738;2022-09-12T08:29:03;5.35;;;3.22;;
74293;SDS011;62688;59.904;10.738;2022-09-12T08:31:29;3.28;;;2.95;;
74293;SDS011;62688;59.904;10.738;2022-09-12T08:34:00;3.67;;;3.38;;
74293;SDS011;62688;59.904;10.738;2022-09-12T08:36:29;3.28;;;2.90;;
74293;SDS011;62688;59.904;10.738;2022-09-12T08:38:56;5.18;;;3.03;;
74293;SDS011;62688;59.904;10.738;2022-09-12T08:51:58;4.25;;;2.65;;
74293;SDS011;62688;59.904;10.738;2022-09-12T08:54:28;3.78;;;2.33;;
74293;SDS011;62688;59.904;10.738;2022-09-12T08:56:57;3.63;;;2.22;;
74293;SDS011;62688;59.904;10.738;2022-09-12T08:59:29;3.42;;;2.33;;
74293;SDS011;62688;59.904;10.738;2022-09-12T09:02:02;3.63;;;2.28;;
74293;SDS011;62688;59.904;10.738;2022-09-12T09:04:51;2.75;;;2.13;;
74293;SDS011;62688;59.904;10.738;2022-09-12T09:10:19;3.70;;;2.42;;
74293;SDS011;62688;59.904;10.738;2022-09-12T09:13:00;2.78;;;2.25;;
74293;SDS011;62688;59.904;10.738;2022-09-12T09:18:54;7.25;;;2.50;;
74293;SDS011;62688;59.904;10.738;2022-09-12T09:21:26;2.35;;;2.05;;
74293;SDS011;62688;59.904;10.738;2022-09-12T09:24:01;6.53;;;2.30;;
74293;SDS011;62688;59.904;10.738;2022-09-12T09:26:40;3.42;;;1.80;;
74293;SDS011;62688;59.904;10.738;2022-09-12T09:29:17;3.53;;;2.63;;
74293;SDS011;62688;59.904;10.738;2022-09-12T09:31:48;3.03;;;2.72;;
74293;SDS011;62688;59.904;10.738;2022-09-12T09:34:18;2.97;;;2.67;;
74293;SDS011;62688;59.904;10.738;2022-09-12T09:36:51;3.13;;;2.40;;
74293;SDS011;62688;59.904;10.738;2022-09-12T09:45:02;3.58;;;2.50;;
74293;SDS011;62688;59.904;10.738;2022-09-12T09:47:36;3.22;;;2.55;;
74293;SDS011;62688;59.904;10.738;2022-09-12T09:50:01;3.30;;;2.47;;
74293;SDS011;62688;59.904;10.738;2022-09-12T09:52:27;2.72;;;2.53;;
74293;SDS011;62688;59.904;10.738;2022-09-12T09:54:56;2.17;;;1.98;;
74293;SDS011;62688;59.904;10.738;2022-09-12T10:05:51;4.50;;;2.28;;
74293;SDS011;62688;59.904;10.738;2022-09-12T10:08:23;2.22;;;2.00;;
74293;SDS011;62688;59.904;10.738;2022-09-12T10:13:53;1.55;;;1.45;;
74293;SDS011;62688;59.904;10.738;2022-09-12T10:16:25;1.75;;;1.60;;
74293;SDS011;62688;59.904;10.738;2022-09-12T10:18:59;1.45;;;1.35;;
74293;SDS011;62688;59.904;10.738;2022-09-12T10:21:30;2.75;;;1.70;;
74293;SDS011;62688;59.904;10.738;2022-09-12T10:26:45;1.15;;;1.13;;
74293;SDS011;62688;59.904;10.738;2022-09-12T10:29:18;2.58;;;1.80;;
74293;SDS011;62688;59.904;10.738;2022-09-12T10:31:49;2.95;;;1.55;;
74293;SDS011;62688;59.904;10.738;2022-09-12T10:37:07;2.75;;;1.30;;
74293;SDS011;62688;59.904;10.738;2022-09-12T10:39:34;1.50;;;1.40;;
74293;SDS011;62688;59.904;10.738;2022-09-12T10:42:02;1.40;;;1.30;;
74293;SDS011;62688;59.904;10.738;2022-09-12T10:44:30;1.50;;;1.40;;
74293;SDS011;62688;59.904;10.738;2022-09-12T10:46:57;1.98;;;1.60;;
74293;SDS011;62688;59.904;10.738;2022-09-12T10:49:30;1.17;;;1.17;;
74293;SDS011;62688;59.904;10.738;2022-09-12T10:52:15;2.72;;;1.83;;
74293;SDS011;62688;59.904;10.738;2022-09-12T10:54:45;1.85;;;1.70;;
74293;SDS011;62688;59.904;10.738;2022-09-12T11:00:03;1.02;;;1.02;;
74293;SDS011;62688;59.904;10.738;2022-09-12T11:03:01;1.98;;;1.30;;
74293;SDS011;62688;59.904;10.738;2022-09-12T11:05:53;1.70;;;1.00;;
74293;SDS011;62688;59.904;10.738;2022-09-12T11:19:49;1.83;;;1.40;;
74293;SDS011;62688;59.904;10.738;2022-09-12T11:31:41;1.98;;;1.45;;
74293;SDS011;62688;59.904;10.738;2022-09-12T11:40:38;1.40;;;1.30;;
74293;SDS011;62688;59.904;10.738;2022-09-12T11:54:43;1.80;;;1.40;;
74293;SDS011;62688;59.904;10.738;2022-09-12T12:08:08;2.40;;;1.52;;
74293;SDS011;62688;59.904;10.738;2022-09-12T12:15:58;2.17;;;1.20;;
74293;SDS011;62688;59.904;10.738;2022-09-12T12:18:28;2.75;;;1.48;;
74293;SDS011;62688;59.904;10.738;2022-09-12T12:20:55;2.03;;;1.30;;
74293;SDS011;62688;59.904;10.738;2022-09-12T12:23:40;3.63;;;1.75;;
74293;SDS011;62688;59.904;10.738;2022-09-12T12:34:39;1.75;;;1.35;;
74293;SDS011;62688;59.904;10.738;2022-09-12T12:44:58;1.65;;;1.23;;
74293;SDS011;62688;59.904;10.738;2022-09-12T12:55:27;2.58;;;1.80;;
74293;SDS011;62688;59.904;10.738;2022-09-12T12:58:00;3.65;;;1.58;;
74293;SDS011;62688;59.904;10.738;2022-09-12T13:00:29;2.27;;;1.83;;
74293;SDS011;62688;59.904;10.738;2022-09-12T13:10:56;2.58;;;1.50;;
74293;SDS011;62688;59.904;10.738;2022-09-12T13:13:31;2.00;;;1.60;;
74293;SDS011;62688;59.904;10.738;2022-09-12T13:16:02;2.42;;;1.35;;
74293;SDS011;62688;59.904;10.738;2022-09-12T13:21:06;3.03;;;1.52;;
74293;SDS011;62688;59.904;10.738;2022-09-12T13:23:35;2.25;;;1.55;;
74293;SDS011;62688;59.904;10.738;2022-09-12T13:26:02;3.40;;;1.58;;
74293;SDS011;62688;59.904;10.738;2022-09-12T13:28:34;2.97;;;1.58;;
74293;SDS011;62688;59.904;10.738;2022-09-12T13:33:41;1.10;;;1.00;;
74293;SDS011;62688;59.904;10.738;2022-09-12T13:44:48;1.40;;;1.15;;
74293;SDS011;62688;59.904;10.738;2022-09-12T13:47:39;1.20;;;1.00;;
74293;SDS011;62688;59.904;10.738;2022-09-12T13:50:17;1.83;;;0.80;;
74293;SDS011;62688;59.904;10.738;2022-09-12T13:52:45;2.88;;;1.17;;
74293;SDS011;62688;59.904;10.738;2022-09-12T13:55:19;0.90;;;0.90;;
74293;SDS011;62688;59.904;10.738;2022-09-12T13:57:54;2.58;;;1.42;;
74293;SDS011;62688;59.904;10.738;2022-09-12T14:00:25;2.00;;;1.10;;
74293;SDS011;62688;59.904;10.738;2022-09-12T14:02:50;2.05;;;1.38;;
74293;SDS011;62688;59.904;10.738;2022-09-12T14:05:39;4.40;;;1.60;;
74293;SDS011;62688;59.904;10.738;2022-09-12T14:08:08;2.90;;;1.40;;
74293;SDS011;62688;59.904;10.738;2022-09-12T14:10:38;4.35;;;1.50;;
74293;SDS011;62688;59.904;10.738;2022-09-12T14:13:10;2.17;;;1.48;;
74293;SDS011;62688;59.904;10.738;2022-09-12T14:15:57;1.88;;;1.10;;
74293;SDS011;62688;59.904;10.738;2022-09-12T14:18:24;2.97;;;1.60;;
74293;SDS011;62688;59.904;10.738;2022-09-12T14:21:07;1.20;;;1.00;;
74293;SDS011;62688;59.904;10.738;2022-09-12T14:23:39;2.22;;;1.23;;
74293;SDS011;62688;59.904;10.738;2022-09-12T14:26:08;2.28;;;1.13;;
74293;SDS011;62688;59.904;10.738;2022-09-12T14:28:38;2.70;;;1.17;;
74293;SDS011;62688;59.904;10.738;2022-09-12T14:31:51;2.25;;;1.30;;
74293;SDS011;62688;59.904;10.738;2022-09-12T14:36:47;3.85;;;1.77;;
74293;SDS011;62688;59.904;10.738;2022-09-12T14:42:15;4.45;;;1.23;;
74293;SDS011;62688;59.904;10.738;2022-09-12T14:47:27;2.72;;;1.40;;
74293;SDS011;62688;59.904;10.738;2022-09-12T14:50:03;4.10;;;1.58;;
74293;SDS011;62688;59.904;10.738;2022-09-12T14:52:40;1.77;;;1.17;;
74293;SDS011;62688;59.904;10.738;2022-09-12T14:57:40;1.73;;;1.05;;
74293;SDS011;62688;59.904;10.738;2022-09-12T15:00:12;1.98;;;1.10;;
74293;SDS011;62688;59.904;10.738;2022-09-12T15:02:44;2.15;;;1.50;;
74293;SDS011;62688;59.904;10.738;2022-09-12T15:10:24;2.30;;;1.20;;
74293;SDS011;62688;59.904;10.738;2022-09-12T15:12:56;5.80;;;1.30;;
74293;SDS011;62688;59.904;10.738;2022-09-12T15:15:37;1.30;;;1.20;;
74293;SDS011;62688;59.904;10.738;2022-09-12T15:18:03;3.33;;;1.40;;
74293;SDS011;62688;59.904;10.738;2022-09-12T15:20:30;2.45;;;1.20;;
74293;SDS011;62688;59.904;10.738;2022-09-12T15:22:56;0.82;;;0.82;;
74293;SDS011;62688;59.904;10.738;2022-09-12T15:25:22;2.28;;;1.02;;
74293;SDS011;62688;59.904;10.738;2022-09-12T15:27:51;2.67;;;1.27;;
74293;SDS011;62688;59.904;10.738;2022-09-12T15:30:17;2.67;;;1.20;;
74293;SDS011;62688;59.904;10.738;2022-09-12T15:32:43;1.30;;;0.95;;
74293;SDS011;62688;59.904;10.738;2022-09-12T15:35:22;2.55;;;1.25;;
74293;SDS011;62688;59.904;10.738;2022-09-12T15:37:49;2.08;;;1.30;;
74293;SDS011;62688;59.904;10.738;2022-09-12T15:40:15;3.53;;;1.23;;
74293;SDS011;62688;59.904;10.738;2022-09-12T15:42:41;2.28;;;1.35;;
74293;SDS011;62688;59.904;10.738;2022-09-12T15:45:11;1.90;;;1.42;;
74293;SDS011;62688;59.904;10.738;2022-09-12T15:47:43;4.15;;;1.67;;
74293;SDS011;62688;59.904;10.738;2022-09-12T15:50:10;2.58;;;1.25;;
74293;SDS011;62688;59.904;10.738;2022-09-12T15:52:36;3.78;;;1.80;;
74293;SDS011;62688;59.904;10.738;2022-09-12T15:55:02;3.33;;;1.58;;
74293;SDS011;62688;59.904;10.738;2022-09-12T15:57:28;2.85;;;1.38;;
74293;SDS011;62688;59.904;10.738;2022-09-12T15:59:53;2.25;;;1.40;;
74293;SDS011;62688;59.904;10.738;2022-09-12T16:02:19;3.67;;;1.58;;
74293;SDS011;62688;59.904;10.738;2022-09-12T16:04:45;4.50;;;1.58;;
74293;SDS011;62688;59.904;10.738;2022-09-12T16:07:12;2.17;;;1.25;;
74293;SDS011;62688;59.904;10.738;2022-09-12T16:09:38;3.55;;;1.40;;
74293;SDS011;62688;59.904;10.738;2022-09-12T16:12:04;1.83;;;1.27;;
74293;SDS011;62688;59.904;10.738;2022-09-12T16:14:30;2.65;;;1.33;;
74293;SDS011;62688;59.904;10.738;2022-09-12T16:16:56;1.98;;;1.50;;
74293;SDS011;62688;59.904;10.738;2022-09-12T16:19:22;3.85;;;0.93;;
74293;SDS011;62688;59.904;10.738;2022-09-12T16:21:48;2.03;;;1.10;;
74293;SDS011;62688;59.904;10.738;2022-09-12T16:24:13;2.67;;;1.40;;
74293;SDS011;62688;59.904;10.738;2022-09-12T16:26:39;2.85;;;1.23;;
74293;SDS011;62688;59.904;10.738;2022-09-12T16:29:05;2.28;;;1.10;;
74293;SDS011;62688;59.904;10.738;2022-09-12T16:31:30;2.75;;;1.75;;
74293;SDS011;62688;59.904;10.738;2022-09-12T16:33:56;2.53;;;1.35;;
74293;SDS011;62688;59.904;10.738;2022-09-12T16:36:22;3.53;;;1.52;;
74293;SDS011;62688;59.904;10.738;2022-09-12T16:38:48;3.30;;;1.85;;
74293;SDS011;62688;59.904;10.738;2022-09-12T16:41:16;3.03;;;1.52;;
74293;SDS011;62688;59.904;10.738;2022-09-12T16:43:43;2.90;;;1.73;;
74293;SDS011;62688;59.904;10.738;2022-09-12T16:46:10;2.22;;;1.48;;
74293;SDS011;62688;59.904;10.738;2022-09-12T16:48:36;3.58;;;2.00;;
74293;SDS011;62688;59.904;10.738;2022-09-12T16:51:05;8.93;;;2.70;;
74293;SDS011;62688;59.904;10.738;2022-09-12T16:53:34;3.65;;;1.95;;
74293;SDS011;62688;59.904;10.738;2022-09-12T16:56:01;5.28;;;1.90;;
74293;SDS011;62688;59.904;10.738;2022-09-12T16:58:30;6.68;;;2.13;;
74293;SDS011;62688;59.904;10.738;2022-09-12T17:01:04;6.70;;;1.95;;
74293;SDS011;62688;59.904;10.738;2022-09-12T17:03:32;5.57;;;2.13;;
74293;SDS011;62688;59.904;10.738;2022-09-12T17:08:35;9.07;;;2.22;;
74293;SDS011;62688;59.904;10.738;2022-09-12T17:11:05;6.13;;;2.63;;
74293;SDS011;62688;59.904;10.738;2022-09-12T17:13:32;8.30;;;2.35;;
74293;SDS011;62688;59.904;10.738;2022-09-12T17:15:58;4.80;;;1.98;;
74293;SDS011;62688;59.904;10.738;2022-09-12T17:18:25;7.60;;;2.55;;
74293;SDS011;62688;59.904;10.738;2022-09-12T17:20:51;11.57;;;2.50;;
74293;SDS011;62688;59.904;10.738;2022-09-12T17:23:16;3.47;;;2.13;;
74293;SDS011;62688;59.904;10.738;2022-09-12T17:25:46;7.35;;;2.50;;
74293;SDS011;62688;59.904;10.738;2022-09-12T17:28:12;6.53;;;2.33;;
74293;SDS011;62688;59.904;10.738;2022-09-12T17:30:38;6.80;;;2.65;;
74293;SDS011;62688;59.904;10.738;2022-09-12T17:33:04;6.60;;;2.38;;
74293;SDS011;62688;59.904;10.738;2022-09-12T17:35:32;6.15;;;2.60;;
74293;SDS011;62688;59.904;10.738;2022-09-12T17:37:59;5.13;;;2.38;;
74293;SDS011;62688;59.904;10.738;2022-09-12T17:40:24;6.13;;;2.65;;
74293;SDS011;62688;59.904;10.738;2022-09-12T17:42:50;5.32;;;2.10;;
74293;SDS011;62688;59.904;10.738;2022-09-12T17:45:15;4.30;;;2.00;;
74293;SDS011;62688;59.904;10.738;2022-09-12T17:47:41;4.80;;;2.45;;
74293;SDS011;62688;59.904;10.738;2022-09-12T17:50:07;7.50;;;2.50;;
74293;SDS011;62688;59.904;10.738;2022-09-12T17:52:33;4.32;;;2.38;;
74293;SDS011;62688;59.904;10.738;2022-09-12T17:54:59;5.05;;;2.55;;
74293;SDS011;62688;59.904;10.738;2022-09-12T17:57:25;4.80;;;1.98;;
74293;SDS011;62688;59.904;10.738;2022-09-12T18:03:02;4.20;;;2.40;;
74293;SDS011;62688;59.904;10.738;2022-09-12T18:05:28;9.18;;;3.08;;
74293;SDS011;62688;59.904;10.738;2022-09-12T18:07:53;6.55;;;2.58;;
74293;SDS011;62688;59.904;10.738;2022-09-12T18:10:19;6.22;;;2.20;;
74293;SDS011;62688;59.904;10.738;2022-09-12T18:12:44;4.38;;;2.28;;
74293;SDS011;62688;59.904;10.738;2022-09-12T18:15:11;5.53;;;2.80;;
74293;SDS011;62688;59.904;10.738;2022-09-12T18:17:36;4.47;;;2.85;;
74293;SDS011;62688;59.904;10.738;2022-09-12T18:20:03;4.18;;;2.40;;
74293;SDS011;62688;59.904;10.738;2022-09-12T18:22:30;6.40;;;2.92;;
74293;SDS011;62688;59.904;10.738;2022-09-12T18:24:55;10.20;;;4.32;;
74293;SDS011;62688;59.904;10.738;2022-09-12T18:27:21;7.05;;;3.47;;